createdAt,value
2023-04-19T00:02:18.737Z,5.20
2023-04-19T00:04:47.774Z,4.85
2023-04-19T00:07:16.980Z,6.43
2023-04-19T00:09:44.590Z,6.22
2023-04-19T00:12:12.182Z,6.05
2023-04-19T00:14:39.609Z,6.43
2023-04-19T00:17:07.388Z,5.88
2023-04-19T00:19:34.921Z,5.65
2023-04-19T00:22:02.411Z,4.75
2023-04-19T00:24:29.887Z,5.43
2023-04-19T00:26:57.497Z,4.78
2023-04-19T00:29:24.989Z,5.60
2023-04-19T00:31:53.244Z,4.72
2023-04-19T00:34:20.716Z,4.88
2023-04-19T00:36:48.201Z,5.55
2023-04-19T00:39:15.692Z,6.55
2023-04-19T00:41:43.368Z,5.50
2023-04-19T00:44:11.131Z,5.50
2023-04-19T00:46:40.477Z,5.75
2023-04-19T00:49:08.202Z,4.65
2023-04-19T00:51:36.151Z,5.53
2023-04-19T00:54:04.897Z,6.32
2023-04-19T00:56:34.660Z,6.18
2023-04-19T00:59:02.459Z,6.95
2023-04-19T01:01:31.311Z,5.97
2023-04-19T01:03:59.223Z,6.28
2023-04-19T01:06:28.263Z,7.15
2023-04-19T01:08:56.484Z,6.85
2023-04-19T01:11:24.501Z,7.95
2023-04-19T01:13:52.717Z,8.38
2023-04-19T01:16:20.373Z,8.30
2023-04-19T01:18:49.637Z,8.40
2023-04-19T01:21:17.445Z,7.43
2023-04-19T01:23:45.520Z,9.32
2023-04-19T01:26:12.993Z,7.63
2023-04-19T01:28:40.529Z,8.57
2023-04-19T01:31:08.014Z,9.90
2023-04-19T01:33:37.431Z,9.95
2023-04-19T01:36:05.270Z,11.40
2023-04-19T01:38:32.807Z,8.48
2023-04-19T01:41:00.270Z,10.18
2023-04-19T01:43:27.703Z,8.63
2023-04-19T01:45:55.137Z,9.90
2023-04-19T01:48:22.709Z,10.10
2023-04-19T01:50:50.167Z,9.35
2023-04-19T01:53:17.815Z,10.50
2023-04-19T01:55:45.935Z,11.10
2023-04-19T01:58:14.308Z,9.95
2023-04-19T02:00:41.843Z,9.68
2023-04-19T02:03:09.458Z,9.63
2023-04-19T02:05:39.437Z,8.07
2023-04-19T02:08:07.047Z,8.55
2023-04-19T02:10:34.419Z,7.68
2023-04-19T02:13:02.014Z,5.60
2023-04-19T02:15:29.481Z,5.68
2023-04-19T02:17:57.011Z,6.18
2023-04-19T02:20:24.593Z,5.55
2023-04-19T02:22:52.075Z,6.40
2023-04-19T02:25:19.587Z,8.23
2023-04-19T02:27:47.143Z,7.50
2023-04-19T02:30:14.903Z,7.88
2023-04-19T02:32:42.441Z,6.93
2023-04-19T02:35:10.120Z,5.85
2023-04-19T02:37:37.648Z,5.00
2023-04-19T02:40:05.797Z,6.40
2023-04-19T02:42:33.281Z,6.25
2023-04-19T02:45:00.744Z,6.20
2023-04-19T02:47:28.281Z,4.85
2023-04-19T02:49:55.751Z,3.88
2023-04-19T02:52:23.605Z,4.40
2023-04-19T02:54:51.118Z,3.70
2023-04-19T02:57:18.634Z,4.85
2023-04-19T02:59:49.323Z,4.70
2023-04-19T03:02:16.958Z,5.53
2023-04-19T03:04:47.284Z,5.53
2023-04-19T03:07:15.520Z,5.47
2023-04-19T03:09:43.022Z,4.70
2023-04-19T03:12:10.739Z,5.95
2023-04-19T03:14:38.462Z,6.18
2023-04-19T03:17:06.239Z,5.55
2023-04-19T03:19:34.232Z,5.78
2023-04-19T03:22:01.705Z,5.53
2023-04-19T03:24:31.083Z,5.97
2023-04-19T03:27:03.590Z,5.90
2023-04-19T03:29:32.057Z,5.55
2023-04-19T03:32:06.811Z,6.50
2023-04-19T03:34:34.350Z,4.68
2023-04-19T03:37:02.160Z,4.97
2023-04-19T03:39:31.897Z,3.80
2023-04-19T03:42:03.683Z,4.68
2023-04-19T03:44:44.766Z,3.30
2023-04-19T03:47:12.352Z,3.70
2023-04-19T03:49:44.254Z,4.03
2023-04-19T03:52:13.032Z,4.88
2023-04-19T03:54:40.611Z,3.80
2023-04-19T03:57:17.747Z,3.95
2023-04-19T03:59:45.276Z,2.80
2023-04-19T04:02:12.792Z,3.45
2023-04-19T04:04:40.643Z,3.42
2023-04-19T04:07:09.000Z,2.95
2023-04-19T04:09:36.442Z,3.97
2023-04-19T04:12:04.150Z,2.72
2023-04-19T04:14:32.060Z,3.90
2023-04-19T04:17:00.538Z,3.00
2023-04-19T04:19:28.052Z,3.45
2023-04-19T04:21:55.999Z,4.45
2023-04-19T04:24:24.290Z,3.22
2023-04-19T04:27:04.288Z,3.92
2023-04-19T04:29:34.682Z,3.22
2023-04-19T04:32:10.503Z,3.83
2023-04-19T04:34:43.105Z,2.83
2023-04-19T04:37:16.438Z,2.92
2023-04-19T04:39:44.403Z,3.30
2023-04-19T04:42:12.301Z,3.72
2023-04-19T04:44:41.551Z,4.25
2023-04-19T04:47:12.620Z,3.50
2023-04-19T04:49:46.596Z,4.15
2023-04-19T04:52:14.094Z,5.13
2023-04-19T04:54:51.548Z,4.30
2023-04-19T04:57:27.713Z,5.85
2023-04-19T04:59:56.471Z,5.07
2023-04-19T05:02:26.843Z,6.10
2023-04-19T05:04:54.612Z,3.58
2023-04-19T05:07:22.047Z,6.07
2023-04-19T05:09:49.598Z,4.90
2023-04-19T05:12:22.629Z,5.22
2023-04-19T05:14:50.197Z,5.45
2023-04-19T05:17:18.104Z,4.00
2023-04-19T05:19:46.802Z,4.85
2023-04-19T05:22:14.561Z,5.15
2023-04-19T05:24:42.600Z,4.07
2023-04-19T05:27:11.314Z,3.70
2023-04-19T05:29:38.877Z,4.18
2023-04-19T05:32:07.808Z,4.60
2023-04-19T05:34:43.199Z,5.25
2023-04-19T05:37:14.328Z,4.13
2023-04-19T05:39:44.475Z,4.60
2023-04-19T05:42:12.349Z,5.75
2023-04-19T05:44:39.796Z,5.80
2023-04-19T05:47:07.687Z,4.35
2023-04-19T05:50:01.730Z,4.82
2023-04-19T05:52:35.478Z,5.13
2023-04-19T05:55:05.053Z,5.18
2023-04-19T05:57:34.250Z,5.57
2023-04-19T06:00:02.483Z,4.65
2023-04-19T06:02:41.104Z,5.07
2023-04-19T06:05:12.464Z,5.45
2023-04-19T06:07:47.104Z,4.53
2023-04-19T06:10:22.854Z,5.38
2023-04-19T06:12:50.437Z,4.85
2023-04-19T06:15:20.110Z,4.45
2023-04-19T06:17:47.920Z,4.70
2023-04-19T06:20:15.761Z,3.72
2023-04-19T06:22:45.793Z,3.70
2023-04-19T06:25:13.361Z,3.47
2023-04-19T06:27:40.953Z,3.83
2023-04-19T06:30:08.782Z,3.80
2023-04-19T06:32:36.224Z,4.72
2023-04-19T06:35:04.988Z,3.13
2023-04-19T06:37:34.034Z,5.93
2023-04-19T06:40:01.833Z,5.22
2023-04-19T06:42:29.581Z,4.65
2023-04-19T06:44:57.442Z,3.92
2023-04-19T06:47:25.218Z,3.83
2023-04-19T06:49:52.820Z,4.50
2023-04-19T06:52:20.617Z,4.28
2023-04-19T06:54:51.921Z,4.55
2023-04-19T06:57:19.696Z,4.20
2023-04-19T06:59:47.277Z,3.30
2023-04-19T07:02:14.904Z,6.50
2023-04-19T07:04:42.684Z,4.90
2023-04-19T07:07:10.425Z,4.22
2023-04-19T07:09:37.961Z,4.70
2023-04-19T07:12:06.607Z,5.55
2023-04-19T07:14:34.347Z,4.45
2023-04-19T07:17:03.832Z,6.30
2023-04-19T07:19:31.537Z,4.18
2023-04-19T07:21:59.099Z,4.78
2023-04-19T07:24:28.043Z,5.78
2023-04-19T07:26:55.650Z,4.80
2023-04-19T07:29:23.202Z,5.65
2023-04-19T07:31:50.740Z,3.90
2023-04-19T07:34:18.432Z,3.97
2023-04-19T07:36:45.984Z,4.65
2023-04-19T07:39:13.692Z,4.95
2023-04-19T07:41:41.273Z,4.75
2023-04-19T07:44:08.867Z,3.63
2023-04-19T07:46:36.378Z,4.07
2023-04-19T07:49:04.875Z,3.10
2023-04-19T07:51:32.533Z,3.20
2023-04-19T07:54:00.180Z,3.35
2023-04-19T07:56:27.765Z,3.72
2023-04-19T07:59:06.939Z,5.03
2023-04-19T08:01:36.296Z,5.05
2023-04-19T08:04:04.262Z,4.15
2023-04-19T08:06:34.368Z,2.92
2023-04-19T08:09:01.870Z,2.78
2023-04-19T08:11:29.379Z,4.13
2023-04-19T08:14:26.743Z,3.88
2023-04-19T08:17:19.097Z,3.45
2023-04-19T08:19:31.956Z,2.72
2023-04-19T08:21:59.663Z,3.13
2023-04-19T08:24:27.321Z,3.42
2023-04-19T08:26:54.821Z,3.28
2023-04-19T08:29:23.183Z,3.00
2023-04-19T08:31:51.037Z,4.25
2023-04-19T08:34:18.670Z,3.53
2023-04-19T08:36:59.973Z,2.50
2023-04-19T08:39:33.485Z,3.00
2023-04-19T08:42:08.509Z,3.13
2023-04-19T08:44:48.991Z,3.45
2023-04-19T08:47:32.177Z,2.60
2023-04-19T08:52:47.798Z,2.92
2023-04-19T08:55:22.238Z,2.60
2023-04-19T08:57:49.773Z,3.42
2023-04-19T09:00:17.835Z,2.70
2023-04-19T09:02:50.384Z,2.70
2023-04-19T09:05:19.469Z,2.75
2023-04-19T09:07:47.973Z,2.67
2023-04-19T09:10:17.907Z,2.70
2023-04-19T09:13:04.308Z,2.65
2023-04-19T09:18:10.081Z,2.28
2023-04-19T09:20:39.632Z,2.50
2023-04-19T09:23:12.109Z,2.95
2023-04-19T09:26:05.933Z,2.90
2023-04-19T09:28:29.196Z,3.03
2023-04-19T09:31:07.067Z,2.55
2023-04-19T09:33:44.665Z,2.30
2023-04-19T09:36:27.101Z,3.15
2023-04-19T09:38:54.831Z,3.33
2023-04-19T09:41:22.345Z,2.65
2023-04-19T09:46:34.093Z,2.90
2023-04-19T09:49:22.929Z,2.70
2023-04-19T09:51:57.196Z,2.75
2023-04-19T09:54:27.550Z,2.25
2023-04-19T09:56:57.827Z,2.78
2023-04-19T09:59:26.596Z,2.58
2023-04-19T10:01:59.026Z,2.45
2023-04-19T10:04:38.199Z,2.03
2023-04-19T10:07:30.106Z,2.35
2023-04-19T10:10:11.547Z,2.08
2023-04-19T10:15:23.862Z,2.58
2023-04-19T10:17:51.571Z,2.28
2023-04-19T10:20:49.621Z,2.33
2023-04-19T10:23:17.875Z,2.28
2023-04-19T10:25:49.547Z,1.98
2023-04-19T10:28:17.497Z,2.33
2023-04-19T10:30:55.946Z,2.10
2023-04-19T10:33:28.261Z,2.22
2023-04-19T10:35:58.065Z,2.45
2023-04-19T10:38:49.436Z,2.10
2023-04-19T10:41:19.175Z,2.42
2023-04-19T10:43:56.104Z,2.17
2023-04-19T10:46:29.257Z,2.30
2023-04-19T10:49:01.487Z,2.22
2023-04-19T10:51:34.144Z,2.20
2023-04-19T10:54:09.208Z,2.00
2023-04-19T10:56:36.813Z,2.37
2023-04-19T10:59:07.919Z,2.35
2023-04-19T11:01:45.546Z,2.13
2023-04-19T11:04:15.085Z,2.17
2023-04-19T11:06:51.623Z,2.03
2023-04-19T11:09:45.185Z,2.40
2023-04-19T11:12:13.770Z,2.40
2023-04-19T11:14:50.838Z,2.47
2023-04-19T11:17:28.023Z,2.80
2023-04-19T11:20:06.861Z,2.53
2023-04-19T11:22:38.312Z,2.50
2023-04-19T11:25:20.666Z,2.10
2023-04-19T11:27:53.251Z,2.28
2023-04-19T11:30:23.162Z,2.80
2023-04-19T11:32:54.396Z,2.30
2023-04-19T11:35:24.625Z,2.22
2023-04-19T11:37:53.159Z,2.40
2023-04-19T11:40:22.690Z,2.88
2023-04-19T11:43:00.680Z,2.67
2023-04-19T11:45:32.582Z,2.10
2023-04-19T11:48:03.010Z,2.25
2023-04-19T11:50:31.466Z,2.63
2023-04-19T11:52:59.415Z,2.60
2023-04-19T11:55:33.531Z,2.47
2023-04-19T11:58:01.758Z,2.60
2023-04-19T12:00:31.410Z,2.50
2023-04-19T12:03:00.171Z,2.40
2023-04-19T12:05:28.188Z,2.25
2023-04-19T12:08:09.458Z,2.58
2023-04-19T12:10:37.084Z,2.50
2023-04-19T12:13:18.231Z,2.15
2023-04-19T12:15:49.164Z,2.20
2023-04-19T12:18:17.001Z,2.80
2023-04-19T12:20:49.302Z,2.30
2023-04-19T12:23:18.185Z,2.03
2023-04-19T12:25:47.884Z,2.47
2023-04-19T12:28:16.357Z,2.30
2023-04-19T12:30:44.213Z,2.65
2023-04-19T12:33:11.864Z,1.88
2023-04-19T12:35:39.970Z,2.45
2023-04-19T12:38:08.734Z,2.30
2023-04-19T12:40:36.295Z,1.80
2023-04-19T12:43:06.128Z,2.33
2023-04-19T12:45:34.972Z,2.03
2023-04-19T12:48:02.658Z,2.63
2023-04-19T12:50:30.170Z,2.08
2023-04-19T12:52:58.237Z,2.20
2023-04-19T12:55:25.769Z,2.65
2023-04-19T12:57:53.246Z,2.17
2023-04-19T13:00:20.928Z,2.28
2023-04-19T13:02:50.015Z,2.10
2023-04-19T13:05:17.754Z,2.03
2023-04-19T13:07:45.308Z,2.17
2023-04-19T13:10:12.868Z,2.28
2023-04-19T13:12:40.671Z,2.03
2023-04-19T13:15:09.031Z,2.10
2023-04-19T13:17:38.058Z,2.28
2023-04-19T13:20:09.624Z,2.00
2023-04-19T13:22:37.131Z,1.80
2023-04-19T13:25:05.866Z,1.65
2023-04-19T13:27:33.369Z,1.77
2023-04-19T13:30:01.070Z,1.80
2023-04-19T13:32:29.417Z,2.00
2023-04-19T13:34:56.912Z,1.80
2023-04-19T13:37:24.494Z,2.38
2023-04-19T13:39:52.446Z,2.40
2023-04-19T13:42:20.827Z,2.45
2023-04-19T13:44:50.439Z,2.15
2023-04-19T13:47:18.081Z,2.45
2023-04-19T13:49:46.009Z,1.77
2023-04-19T13:52:13.517Z,2.35
2023-04-19T13:54:40.936Z,2.30
2023-04-19T13:57:08.571Z,2.10
2023-04-19T13:59:36.301Z,2.75
2023-04-19T14:02:04.488Z,2.33
2023-04-19T14:04:32.735Z,2.00
2023-04-19T14:07:00.282Z,1.70
2023-04-19T14:09:27.971Z,2.22
2023-04-19T14:11:55.589Z,1.80
2023-04-19T14:14:23.067Z,1.92
2023-04-19T14:16:50.792Z,1.88
2023-04-19T14:19:18.339Z,1.90
2023-04-19T14:21:45.898Z,2.08
2023-04-19T14:24:13.397Z,1.75
2023-04-19T14:26:41.007Z,1.92
2023-04-19T14:29:08.502Z,1.92
2023-04-19T14:31:36.068Z,2.05
2023-04-19T14:34:03.591Z,2.08
2023-04-19T14:36:31.310Z,2.05
2023-04-19T14:38:58.828Z,1.90
2023-04-19T14:41:26.425Z,1.70
2023-04-19T14:43:56.169Z,2.03
2023-04-19T14:46:23.958Z,1.80
2023-04-19T14:48:51.505Z,1.83
2023-04-19T14:51:19.013Z,1.77
2023-04-19T14:53:46.483Z,1.48
2023-04-19T14:56:14.089Z,1.30
2023-04-19T14:58:41.541Z,2.55
2023-04-19T15:01:15.410Z,2.10
2023-04-19T15:03:43.331Z,2.40
2023-04-19T15:06:11.096Z,2.20
2023-04-19T15:08:38.692Z,2.13
2023-04-19T15:11:07.286Z,2.20
2023-04-19T15:13:35.884Z,2.50
2023-04-19T15:16:04.067Z,2.30
2023-04-19T15:18:31.649Z,2.20
2023-04-19T15:20:59.315Z,2.30
2023-04-19T15:23:26.960Z,2.40
2023-04-19T15:25:55.934Z,2.25
2023-04-19T15:28:24.664Z,2.30
2023-04-19T15:31:00.232Z,2.05
2023-04-19T15:33:28.326Z,2.55
2023-04-19T15:35:56.473Z,2.30
2023-04-19T15:38:26.044Z,2.28
2023-04-19T15:40:55.691Z,2.40
2023-04-19T15:43:24.171Z,2.85
2023-04-19T15:45:52.197Z,2.55
2023-04-19T15:48:22.780Z,2.30
2023-04-19T15:50:50.888Z,2.03
2023-04-19T15:53:18.471Z,1.92
2023-04-19T15:55:49.245Z,2.10
2023-04-19T15:58:16.917Z,2.47
2023-04-19T16:00:45.098Z,2.17
2023-04-19T16:03:12.972Z,2.53
2023-04-19T16:05:40.592Z,1.98
2023-04-19T16:08:09.575Z,2.42
2023-04-19T16:10:37.326Z,2.28
2023-04-19T16:13:05.830Z,2.67
2023-04-19T16:15:33.460Z,2.20
2023-04-19T16:18:01.238Z,2.30
2023-04-19T16:20:28.711Z,2.60
2023-04-19T16:22:57.824Z,2.50
2023-04-19T16:25:25.335Z,3.55
2023-04-19T16:27:52.793Z,2.25
2023-04-19T16:30:21.081Z,3.03
2023-04-19T16:32:49.949Z,2.38
2023-04-19T16:35:18.371Z,2.35
2023-04-19T16:37:45.981Z,2.25
2023-04-19T16:40:13.573Z,2.53
2023-04-19T16:42:41.306Z,2.55
2023-04-19T16:45:09.383Z,2.58
2023-04-19T16:47:36.953Z,2.60
2023-04-19T16:50:06.167Z,2.28
2023-04-19T16:52:35.530Z,2.10
2023-04-19T16:55:06.246Z,2.03
2023-04-19T16:57:33.982Z,2.60
2023-04-19T17:00:01.708Z,2.30
2023-04-19T17:02:29.523Z,2.50
2023-04-19T17:04:57.408Z,2.22
2023-04-19T17:07:25.290Z,2.28
2023-04-19T17:09:53.276Z,2.90
2023-04-19T17:12:20.921Z,2.90
2023-04-19T17:14:49.891Z,2.17
2023-04-19T17:17:20.148Z,2.47
2023-04-19T17:19:47.677Z,2.78
2023-04-19T17:22:15.798Z,2.70
2023-04-19T17:24:43.423Z,2.70
2023-04-19T17:27:11.719Z,2.70
2023-04-19T17:29:39.289Z,2.17
2023-04-19T17:32:08.589Z,2.95
2023-04-19T17:34:36.998Z,2.78
2023-04-19T17:37:06.257Z,2.05
2023-04-19T17:39:33.825Z,2.45
2023-04-19T17:42:01.946Z,2.63
2023-04-19T17:44:29.569Z,3.22
2023-04-19T17:46:58.680Z,2.40
2023-04-19T17:49:27.185Z,2.40
2023-04-19T17:51:56.268Z,2.28
2023-04-19T17:54:23.933Z,2.55
2023-04-19T17:56:52.650Z,2.85
2023-04-19T17:59:20.495Z,2.28
2023-04-19T18:01:48.043Z,2.60
2023-04-19T18:04:17.963Z,2.90
2023-04-19T18:06:46.982Z,2.65
2023-04-19T18:09:14.987Z,3.17
2023-04-19T18:11:42.818Z,2.45
2023-04-19T18:14:10.423Z,3.03
2023-04-19T18:16:37.921Z,3.03
2023-04-19T18:19:05.444Z,2.70
2023-04-19T18:21:33.600Z,2.78
2023-04-19T18:24:01.094Z,2.67
2023-04-19T18:26:39.855Z,3.10
2023-04-19T18:29:07.678Z,3.15
2023-04-19T18:31:35.379Z,2.88
2023-04-19T18:34:03.170Z,3.25
2023-04-19T18:36:31.622Z,3.30
2023-04-19T18:38:59.181Z,2.47
2023-04-19T18:41:26.645Z,2.50
2023-04-19T18:44:25.780Z,2.47
2023-04-19T18:46:42.479Z,2.90
2023-04-19T18:49:10.314Z,4.65
2023-04-19T18:51:38.501Z,3.30
2023-04-19T18:54:06.293Z,3.30
2023-04-19T18:59:04.232Z,3.25
2023-04-19T19:01:33.329Z,2.42
2023-04-19T19:04:24.048Z,2.55
2023-04-19T19:06:50.687Z,3.47
2023-04-19T19:09:18.572Z,3.10
2023-04-19T19:11:56.251Z,2.58
2023-04-19T19:14:24.350Z,3.00
2023-04-19T19:16:52.929Z,2.63
2023-04-19T19:19:22.702Z,2.67
2023-04-19T19:21:52.162Z,2.58
2023-04-19T19:24:19.612Z,2.42
2023-04-19T19:26:48.041Z,2.45
2023-04-19T19:29:16.820Z,2.03
2023-04-19T19:31:44.359Z,2.80
2023-04-19T19:34:25.418Z,3.28
2023-04-19T19:36:56.618Z,2.42
2023-04-19T19:39:24.026Z,2.78
2023-04-19T19:42:05.468Z,3.13
2023-04-19T19:44:33.782Z,3.45
2023-04-19T19:47:01.284Z,2.53
2023-04-19T19:49:28.867Z,2.45
2023-04-19T19:51:59.459Z,2.78
2023-04-19T19:54:27.687Z,2.78
2023-04-19T19:59:29.915Z,2.67
2023-04-19T20:01:58.294Z,2.10
2023-04-19T20:04:26.194Z,2.20
2023-04-19T20:09:27.674Z,2.30
2023-04-19T20:11:55.594Z,2.42
2023-04-19T20:14:24.113Z,2.13
2023-04-19T20:16:52.659Z,3.05
2023-04-19T20:19:21.655Z,2.13
2023-04-19T20:21:49.119Z,2.85
2023-04-19T20:24:20.078Z,2.72
2023-04-19T20:26:48.605Z,2.13
2023-04-19T20:29:16.277Z,2.15
2023-04-19T20:31:43.959Z,3.17
2023-04-19T20:34:11.596Z,2.60
2023-04-19T20:36:40.451Z,2.35
2023-04-19T20:39:13.117Z,2.72
2023-04-19T20:41:41.132Z,2.88
2023-04-19T20:44:08.562Z,2.80
2023-04-19T20:46:36.097Z,3.35
2023-04-19T20:49:03.666Z,2.85
2023-04-19T20:51:32.540Z,3.00
2023-04-19T20:54:00.048Z,2.97
2023-04-19T20:56:27.630Z,2.92
2023-04-19T20:58:55.564Z,3.28
2023-04-19T21:01:24.368Z,2.63
2023-04-19T21:03:52.123Z,2.53
2023-04-19T21:06:22.925Z,3.35
2023-04-19T21:08:50.974Z,2.90
2023-04-19T21:11:18.478Z,2.90
2023-04-19T21:13:46.039Z,2.88
2023-04-19T21:16:13.547Z,2.42
2023-04-19T21:18:40.968Z,2.67
2023-04-19T21:21:08.535Z,3.45
2023-04-19T21:23:36.316Z,3.42
2023-04-19T21:26:04.658Z,3.42
2023-04-19T21:28:34.775Z,4.85
2023-04-19T21:31:02.721Z,5.00
2023-04-19T21:33:30.516Z,4.72
2023-04-19T21:35:58.090Z,3.90
2023-04-19T21:38:25.731Z,4.07
2023-04-19T21:40:53.222Z,5.93
2023-04-19T21:43:20.779Z,6.50
2023-04-19T21:45:48.266Z,6.10
2023-04-19T21:48:15.791Z,5.15
2023-04-19T21:50:43.230Z,4.30
2023-04-19T21:53:10.883Z,5.70
2023-04-19T21:55:38.449Z,5.43
2023-04-19T21:58:06.003Z,6.68
2023-04-19T22:00:33.489Z,7.18
2023-04-19T22:03:01.475Z,4.95
2023-04-19T22:05:29.001Z,4.90
2023-04-19T22:07:57.639Z,4.65
2023-04-19T22:10:25.831Z,4.88
2023-04-19T22:12:58.700Z,5.65
2023-04-19T22:15:28.092Z,7.55
2023-04-19T22:17:57.495Z,6.60
2023-04-19T22:20:29.128Z,6.10
2023-04-19T22:22:56.684Z,5.45
2023-04-19T22:25:24.164Z,4.45
2023-04-19T22:27:51.805Z,4.63
2023-04-19T22:30:19.304Z,4.20
2023-04-19T22:32:47.002Z,4.55
2023-04-19T22:35:14.585Z,6.93
2023-04-19T22:37:42.413Z,6.88
2023-04-19T22:40:10.535Z,5.15
2023-04-19T22:42:38.026Z,5.88
2023-04-19T22:45:06.200Z,4.10
2023-04-19T22:47:33.946Z,5.78
2023-04-19T22:50:01.592Z,6.22
2023-04-19T22:52:29.076Z,7.15
2023-04-19T22:54:56.506Z,4.82
2023-04-19T22:57:23.982Z,4.95
2023-04-19T22:59:51.437Z,4.95
2023-04-19T23:02:18.982Z,5.53
2023-04-19T23:04:48.846Z,6.55
2023-04-19T23:07:16.332Z,5.70
2023-04-19T23:09:43.760Z,6.78
2023-04-19T23:12:11.213Z,7.47
2023-04-19T23:14:38.968Z,4.53
2023-04-19T23:17:06.499Z,5.53
2023-04-19T23:19:34.764Z,7.00
2023-04-19T23:22:02.431Z,5.28
2023-04-19T23:24:29.888Z,4.75
2023-04-19T23:26:57.501Z,5.82
2023-04-19T23:29:24.967Z,4.30
2023-04-19T23:31:52.685Z,5.35
2023-04-19T23:34:20.616Z,4.03
2023-04-19T23:36:48.117Z,4.45
2023-04-19T23:39:17.061Z,5.30
2023-04-19T23:41:44.904Z,4.65
2023-04-19T23:44:12.363Z,5.68
2023-04-19T23:46:39.950Z,4.85
2023-04-19T23:49:08.715Z,7.05
2023-04-19T23:51:36.507Z,5.85
2023-04-19T23:54:04.181Z,5.35
2023-04-19T23:56:31.698Z,8.88
2023-04-19T23:58:59.217Z,5.93
